Time;durP1;ratioP1;P1;durP2;ratioP2;P2;SDS_P1;SDS_P2;PMS_P1;PMS_P2;Temp;Humidity;BMP_temperature;BMP_pressure;BME280_temperature;BME280_humidity;BME280_pressure;Samples;Min_cycle;Max_cycle;Signal;HPM_P1;HPM_P2
2023/03/01 00:00:22;;;;;;;11.10;7.60;;;16.80;42.00;;;;;;5043660;28;20460;-79
2023/03/01 00:02:51;;;;;;;13.97;8.03;;;16.80;42.20;;;;;;5041581;28;20455;-79
2023/03/01 00:05:19;;;;;;;9.57;6.77;;;16.80;42.30;;;;;;5046266;28;20493;-81
2023/03/01 00:07:47;;;;;;;11.80;7.67;;;16.70;42.20;;;;;;5042670;28;20451;-81
2023/03/01 00:10:15;;;;;;;13.03;7.80;;;16.70;42.50;;;;;;5041042;28;20478;-81
2023/03/01 00:12:43;;;;;;;15.60;7.60;;;16.70;42.30;;;;;;5045785;28;20480;-81
2023/03/01 00:15:11;;;;;;;12.80;7.60;;;16.60;42.40;;;;;;5045166;28;20475;-81
2023/03/01 00:17:39;;;;;;;10.50;7.53;;;16.60;42.50;;;;;;5043042;28;20454;-81
2023/03/01 00:20:12;;;;;;;10.20;7.70;;;16.60;42.50;;;;;;5047327;28;20458;-81
2023/03/01 00:22:39;;;;;;;11.13;6.87;;;16.50;42.50;;;;;;5038663;28;20443;-80
2023/03/01 00:25:09;;;;;;;10.20;7.10;;;16.50;42.50;;;;;;5040702;28;20509;-80
2023/03/01 00:27:36;;;;;;;15.80;7.10;;;16.50;42.60;;;;;;5038381;28;20478;-81
2023/03/01 00:30:05;;;;;;;10.00;7.77;;;16.50;42.60;;;;;;5041833;28;20478;-81
2023/03/01 00:32:33;;;;;;;14.30;7.20;;;16.50;42.70;;;;;;5039394;28;20521;-81
2023/03/01 00:35:01;;;;;;;10.27;7.20;;;16.50;42.60;;;;;;5046173;28;20483;-81
2023/03/01 00:37:30;;;;;;;10.60;7.53;;;16.40;42.60;;;;;;5043897;28;20474;-80
2023/03/01 00:39:58;;;;;;;12.00;7.67;;;16.40;42.80;;;;;;5039700;28;20447;-81
2023/03/01 00:42:26;;;;;;;12.40;7.30;;;16.30;42.70;;;;;;5043285;28;20475;-81
2023/03/01 00:44:54;;;;;;;13.17;7.97;;;16.30;43.50;;;;;;5042426;28;20476;-80
2023/03/01 00:47:22;;;;;;;10.07;7.20;;;16.30;42.80;;;;;;5040309;28;20462;-81
2023/03/01 00:49:50;;;;;;;12.20;7.60;;;16.30;43.00;;;;;;5044286;28;20451;-80
2023/03/01 00:52:18;;;;;;;11.73;7.00;;;16.30;42.90;;;;;;5041388;28;20451;-80
2023/03/01 00:54:48;;;;;;;14.80;6.80;;;16.20;43.00;;;;;;5050536;28;20470;-80
2023/03/01 00:57:16;;;;;;;13.03;7.07;;;16.20;42.80;;;;;;5045100;28;20467;-82
2023/03/01 00:59:44;;;;;;;10.07;7.40;;;16.20;43.00;;;;;;5042507;28;20468;-80
2023/03/01 01:02:12;;;;;;;8.47;6.80;;;16.10;42.90;;;;;;5045073;28;20466;-81
2023/03/01 01:04:40;;;;;;;13.23;7.53;;;16.10;43.00;;;;;;5044078;28;20475;-81
2023/03/01 01:07:08;;;;;;;8.07;6.67;;;16.10;42.90;;;;;;5043401;28;20447;-81
2023/03/01 01:09:36;;;;;;;9.00;7.07;;;16.00;43.10;;;;;;5040243;28;20444;-80
2023/03/01 01:12:06;;;;;;;8.73;6.80;;;16.00;43.20;;;;;;5044318;28;20478;-81
2023/03/01 01:14:33;;;;;;;11.20;7.97;;;16.00;43.20;;;;;;5039441;28;20471;-81
2023/03/01 01:17:01;;;;;;;10.03;7.33;;;16.00;43.20;;;;;;5046099;28;20457;-81
2023/03/01 01:19:29;;;;;;;12.00;7.57;;;16.00;43.00;;;;;;5046902;28;20463;-80
2023/03/01 01:21:57;;;;;;;10.63;7.97;;;15.90;43.00;;;;;;5042995;28;20475;-80
2023/03/01 01:24:25;;;;;;;11.43;7.70;;;15.90;43.40;;;;;;5043739;28;20500;-81
2023/03/01 01:26:53;;;;;;;12.90;8.37;;;15.80;43.30;;;;;;5042639;28;20477;-80
2023/03/01 01:29:22;;;;;;;10.50;7.33;;;15.80;43.40;;;;;;5043584;28;20462;-80
2023/03/01 01:31:50;;;;;;;10.20;7.30;;;15.80;43.30;;;;;;5045168;28;20447;-80
2023/03/01 01:34:20;;;;;;;11.87;7.57;;;15.80;43.30;;;;;;5040804;28;20498;-81
2023/03/01 01:36:49;;;;;;;10.40;7.20;;;15.80;43.30;;;;;;5041325;28;20459;-81
2023/03/01 01:39:16;;;;;;;29.27;18.40;;;15.80;43.40;;;;;;5039884;28;20448;-81
2023/03/01 01:41:44;;;;;;;30.33;17.17;;;15.80;43.40;;;;;;5039903;28;20553;-82
2023/03/01 01:44:15;;;;;;;23.30;14.40;;;15.70;43.30;;;;;;5039661;28;20467;-80
2023/03/01 01:46:45;;;;;;;19.60;12.63;;;15.70;43.40;;;;;;5039298;28;20448;-81
2023/03/01 01:49:20;;;;;;;21.43;12.13;;;15.70;43.30;;;;;;5039085;28;20439;-80
2023/03/01 01:51:49;;;;;;;18.67;12.30;;;15.70;43.30;;;;;;5043751;28;20501;-82
2023/03/01 01:54:18;;;;;;;20.70;12.80;;;15.60;43.60;;;;;;5043520;28;20470;-80
2023/03/01 01:56:48;;;;;;;18.27;11.93;;;15.60;43.60;;;;;;5046255;28;20470;-81
2023/03/01 01:59:16;;;;;;;18.60;12.03;;;15.60;43.60;;;;;;5043289;28;20451;-80
2023/03/01 02:01:46;;;;;;;16.73;11.70;;;15.60;43.70;;;;;;5039947;28;20480;-81
2023/03/01 02:04:14;;;;;;;19.40;11.50;;;15.50;43.40;;;;;;5043180;28;21018;-80
2023/03/01 02:06:45;;;;;;;16.63;11.33;;;15.50;43.60;;;;;;5041362;28;20457;-82
2023/03/01 02:09:15;;;;;;;15.83;10.73;;;15.50;43.70;;;;;;5038758;28;20447;-81
2023/03/01 02:11:43;;;;;;;17.73;11.20;;;15.50;43.60;;;;;;5038748;28;21002;-81
2023/03/01 02:14:11;;;;;;;17.90;11.60;;;15.40;43.50;;;;;;5047781;28;20477;-81
2023/03/01 02:16:39;;;;;;;16.53;10.67;;;15.40;43.60;;;;;;5039519;28;20527;-81
2023/03/01 02:19:08;;;;;;;16.97;10.97;;;15.40;43.70;;;;;;5041138;28;20482;-81
2023/03/01 02:21:39;;;;;;;17.10;10.27;;;15.40;43.90;;;;;;5044798;28;20478;-81
2023/03/01 02:24:14;;;;;;;15.60;10.83;;;15.40;43.70;;;;;;5042990;28;20473;-81
2023/03/01 02:26:46;;;;;;;15.47;10.17;;;15.30;43.80;;;;;;5037855;28;20477;-81
2023/03/01 02:29:15;;;;;;;14.03;10.00;;;15.30;43.80;;;;;;5044265;28;20458;-80
2023/03/01 02:31:43;;;;;;;15.63;10.30;;;15.30;43.80;;;;;;5047399;28;20451;-80
2023/03/01 02:34:12;;;;;;;17.33;11.57;;;15.30;43.80;;;;;;5046470;28;20467;-81
2023/03/01 02:36:42;;;;;;;16.37;10.27;;;15.30;43.80;;;;;;5043525;28;20465;-79
2023/03/01 02:39:14;;;;;;;14.53;10.10;;;15.20;43.60;;;;;;5049632;28;20446;-81
2023/03/01 02:41:43;;;;;;;16.60;9.80;;;15.20;43.80;;;;;;5046557;28;20485;-81
2023/03/01 02:44:11;;;;;;;14.20;9.77;;;15.20;43.70;;;;;;5043147;28;20482;-80
2023/03/01 02:46:45;;;;;;;16.43;10.13;;;15.10;43.80;;;;;;5044620;28;20453;-80
2023/03/01 02:49:21;;;;;;;12.90;9.53;;;15.10;43.80;;;;;;5045181;28;20455;-80
2023/03/01 02:51:55;;;;;;;13.70;9.77;;;15.10;43.70;;;;;;5048881;28;20454;-80
2023/03/01 02:54:25;;;;;;;14.27;10.17;;;15.10;43.90;;;;;;5048300;28;20479;-80
2023/03/01 02:56:53;;;;;;;14.77;9.47;;;15.00;43.80;;;;;;5047103;28;20478;-80
2023/03/01 02:59:23;;;;;;;14.77;9.30;;;15.10;43.90;;;;;;5045863;28;20455;-80
2023/03/01 03:01:52;;;;;;;12.43;8.67;;;15.00;44.00;;;;;;5044112;28;20467;-81
2023/03/01 03:04:20;;;;;;;11.70;8.70;;;15.00;44.00;;;;;;5043478;28;20526;-79
2023/03/01 03:06:50;;;;;;;13.10;8.93;;;14.90;43.80;;;;;;5044547;28;20466;-80
2023/03/01 03:09:18;;;;;;;11.67;8.93;;;14.90;44.20;;;;;;5044530;28;20534;-79
2023/03/01 03:11:46;;;;;;;12.93;9.03;;;14.90;44.00;;;;;;5042320;28;20472;-80
2023/03/01 03:14:15;;;;;;;13.60;9.10;;;14.90;43.80;;;;;;5045000;28;20476;-80
2023/03/01 03:16:43;;;;;;;12.83;8.43;;;14.90;44.00;;;;;;5043582;28;20462;-80
2023/03/01 03:19:13;;;;;;;13.40;9.50;;;14.90;43.90;;;;;;5045070;28;20459;-80
2023/03/01 03:21:41;;;;;;;12.57;8.30;;;14.80;43.80;;;;;;5042835;28;20453;-80
2023/03/01 03:24:09;;;;;;;17.10;8.60;;;14.80;43.70;;;;;;5045740;28;20471;-80
2023/03/01 03:26:37;;;;;;;13.90;9.50;;;14.80;44.10;;;;;;5041855;28;20472;-80
2023/03/01 03:29:05;;;;;;;12.63;8.43;;;14.80;44.00;;;;;;5041576;28;20451;-79
2023/03/01 03:31:32;;;;;;;10.13;7.70;;;14.70;44.00;;;;;;5044170;28;20451;-80
2023/03/01 03:34:00;;;;;;;14.63;9.03;;;14.70;43.90;;;;;;5044635;28;20466;-80
2023/03/01 03:36:30;;;;;;;11.90;8.67;;;14.70;43.80;;;;;;5045066;28;20462;-80
2023/03/01 03:38:59;;;;;;;13.70;9.60;;;14.70;44.40;;;;;;5049202;28;20535;-80
2023/03/01 03:41:30;;;;;;;11.27;8.13;;;14.60;43.90;;;;;;5046877;28;20474;-79
2023/03/01 03:43:58;;;;;;;14.60;8.90;;;14.60;44.10;;;;;;5043044;28;20475;-80
2023/03/01 03:46:26;;;;;;;12.00;8.50;;;14.60;44.00;;;;;;5042108;28;20451;-80
2023/03/01 03:48:54;;;;;;;18.57;9.00;;;14.60;44.10;;;;;;5048359;28;20457;-80
2023/03/01 03:51:23;;;;;;;14.03;8.33;;;14.60;43.90;;;;;;5040716;28;20466;-80
2023/03/01 03:53:52;;;;;;;13.63;8.60;;;14.60;43.80;;;;;;5044349;28;20474;-80
2023/03/01 03:56:20;;;;;;;13.10;8.60;;;14.50;43.80;;;;;;5044993;28;20475;-81
2023/03/01 03:58:47;;;;;;;12.40;8.93;;;14.50;44.00;;;;;;5039424;28;20457;-80
2023/03/01 04:01:16;;;;;;;14.07;9.10;;;14.50;43.80;;;;;;5045931;28;20451;-81
2023/03/01 04:03:46;;;;;;;13.00;8.80;;;14.50;44.00;;;;;;5050547;28;20508;-81
2023/03/01 04:06:14;;;;;;;11.63;8.60;;;14.50;44.00;;;;;;5047249;28;20533;-80
2023/03/01 04:08:42;;;;;;;13.30;9.20;;;14.40;44.00;;;;;;5043490;28;20459;-80
2023/03/01 04:11:29;;;;;;;11.80;8.50;;;14.40;44.00;;;;;;5045234;28;20475;-80
2023/03/01 04:13:58;;;;;;;12.23;8.73;;;14.40;44.00;;;;;;5042269;28;20492;-80
2023/03/01 04:16:26;;;;;;;13.70;9.27;;;14.40;44.10;;;;;;5038031;28;20451;-80
2023/03/01 04:18:54;;;;;;;13.30;8.63;;;14.40;44.10;;;;;;5039442;28;20458;-81
2023/03/01 04:21:22;;;;;;;11.70;8.87;;;14.30;44.10;;;;;;5052904;28;20436;-80
2023/03/01 04:23:52;;;;;;;12.70;8.17;;;14.30;43.90;;;;;;5046451;28;20471;-80
2023/03/01 04:26:21;;;;;;;12.53;7.87;;;14.30;44.00;;;;;;5044255;28;20475;-80
2023/03/01 04:28:50;;;;;;;11.93;8.87;;;14.30;44.20;;;;;;5039671;28;20474;-80
2023/03/01 04:31:20;;;;;;;13.77;8.27;;;14.30;44.10;;;;;;5040329;28;20451;-81
2023/03/01 04:33:51;;;;;;;10.03;7.87;;;14.30;44.00;;;;;;5041790;28;20498;-81
2023/03/01 04:36:19;;;;;;;11.90;8.20;;;14.20;44.20;;;;;;5042247;28;20481;-80
2023/03/01 04:38:47;;;;;;;10.90;8.03;;;14.20;44.20;;;;;;5038741;28;20462;-81
2023/03/01 04:41:16;;;;;;;13.07;8.50;;;14.20;44.20;;;;;;5044136;28;20467;-80
2023/03/01 04:43:46;;;;;;;12.23;8.20;;;14.20;44.30;;;;;;5042325;28;20488;-81
2023/03/01 04:46:14;;;;;;;12.53;8.30;;;14.20;44.10;;;;;;5042577;28;20456;-81
2023/03/01 04:48:43;;;;;;;12.80;8.90;;;14.20;44.10;;;;;;5039322;28;20505;-81
2023/03/01 04:51:13;;;;;;;12.27;8.03;;;14.10;44.10;;;;;;5043172;28;20451;-81
2023/03/01 04:53:41;;;;;;;10.40;7.37;;;14.10;44.20;;;;;;5040733;28;20513;-80
2023/03/01 04:56:09;;;;;;;11.13;7.60;;;14.10;44.30;;;;;;5039442;28;20481;-81
2023/03/01 04:58:37;;;;;;;10.60;7.70;;;14.10;44.20;;;;;;5039489;28;20490;-81
2023/03/01 05:01:14;;;;;;;11.37;8.20;;;14.00;44.20;;;;;;5046653;28;20465;-81
2023/03/01 05:03:44;;;;;;;13.20;8.57;;;14.00;44.20;;;;;;5043150;28;20521;-81
2023/03/01 05:06:11;;;;;;;9.33;7.53;;;14.00;44.20;;;;;;5037246;28;20463;-80
2023/03/01 05:08:40;;;;;;;10.37;7.17;;;13.90;44.30;;;;;;5040047;28;20454;-81
2023/03/01 05:11:08;;;;;;;11.73;8.23;;;14.00;44.30;;;;;;5036959;28;20476;-80
2023/03/01 05:13:37;;;;;;;9.70;7.60;;;13.90;44.00;;;;;;5042376;28;20474;-80
2023/03/01 05:16:06;;;;;;;11.83;8.23;;;13.90;44.10;;;;;;5042322;28;20491;-81
2023/03/01 05:18:36;;;;;;;9.90;7.97;;;13.90;44.30;;;;;;5038865;28;20451;-81
2023/03/01 05:21:05;;;;;;;11.40;8.30;;;13.90;44.30;;;;;;5042594;28;20454;-82
2023/03/01 05:23:33;;;;;;;10.60;8.10;;;13.90;44.20;;;;;;5050127;28;20497;-81
2023/03/01 05:26:02;;;;;;;9.23;7.13;;;13.90;44.10;;;;;;5039226;28;20466;-81
2023/03/01 05:28:30;;;;;;;10.50;7.83;;;13.80;44.10;;;;;;5043815;28;20467;-81
2023/03/01 05:30:58;;;;;;;9.90;7.80;;;13.80;44.10;;;;;;5038963;28;20455;-80
2023/03/01 05:33:26;;;;;;;12.17;8.13;;;13.80;44.30;;;;;;5041694;28;20545;-81
2023/03/01 05:35:55;;;;;;;12.53;7.10;;;13.80;44.30;;;;;;5044258;28;20527;-81
2023/03/01 05:38:23;;;;;;;10.63;7.80;;;13.80;44.40;;;;;;5039581;28;20543;-81
2023/03/01 05:40:51;;;;;;;9.17;7.57;;;13.70;44.30;;;;;;5043151;28;20481;-80
2023/03/01 05:43:19;;;;;;;10.60;7.90;;;13.80;44.20;;;;;;5043300;28;20471;-80
2023/03/01 05:45:47;;;;;;;12.00;8.37;;;13.70;44.40;;;;;;5042375;28;20459;-80
2023/03/01 05:48:15;;;;;;;11.43;7.43;;;13.70;44.30;;;;;;5039227;28;20489;-81
2023/03/01 05:50:45;;;;;;;10.87;8.27;;;13.70;44.40;;;;;;5042870;28;20459;-81
2023/03/01 05:53:15;;;;;;;12.07;7.80;;;13.70;44.30;;;;;;5040362;28;20443;-80
2023/03/01 05:55:43;;;;;;;10.50;7.37;;;13.70;44.20;;;;;;5038816;28;20485;-80
2023/03/01 05:58:13;;;;;;;11.97;7.40;;;13.70;44.30;;;;;;5039688;28;20466;-81
2023/03/01 06:00:41;;;;;;;10.87;8.03;;;13.60;44.40;;;;;;5037640;28;20486;-81
2023/03/01 06:03:10;;;;;;;10.40;7.90;;;13.60;44.30;;;;;;5041968;28;20476;-80
2023/03/01 06:05:39;;;;;;;11.10;7.60;;;13.60;44.00;;;;;;5038980;28;20518;-81
2023/03/01 06:08:07;;;;;;;10.67;8.40;;;13.60;44.20;;;;;;5040576;28;20455;-82
2023/03/01 06:10:36;;;;;;;11.03;8.00;;;13.60;44.30;;;;;;5045888;28;20467;-81
2023/03/01 06:13:04;;;;;;;9.80;7.60;;;13.60;44.40;;;;;;5045360;28;20451;-81
2023/03/01 06:15:32;;;;;;;10.97;7.90;;;13.60;44.30;;;;;;5043261;28;20990;-81
2023/03/01 06:18:00;;;;;;;11.63;8.57;;;13.60;44.30;;;;;;5042667;28;20452;-81
2023/03/01 06:20:29;;;;;;;13.07;8.43;;;13.60;44.30;;;;;;5046070;28;20451;-81
2023/03/01 06:22:56;;;;;;;11.10;8.30;;;13.60;44.20;;;;;;5044549;28;20471;-80
2023/03/01 06:25:25;;;;;;;10.53;7.63;;;13.60;44.50;;;;;;5048231;28;20478;-80
2023/03/01 06:27:54;;;;;;;11.60;8.20;;;13.60;44.20;;;;;;5048815;28;20446;-81
2023/03/01 06:30:23;;;;;;;12.10;8.80;;;13.60;44.30;;;;;;5045228;28;20986;-81
2023/03/01 06:32:51;;;;;;;12.73;8.73;;;13.50;44.20;;;;;;5046143;28;20525;-80
2023/03/01 06:35:19;;;;;;;12.70;8.53;;;13.50;44.20;;;;;;5042654;28;20479;-81
2023/03/01 06:37:48;;;;;;;12.20;8.53;;;13.50;44.40;;;;;;5043656;28;20453;-81
2023/03/01 06:40:21;;;;;;;12.00;8.37;;;13.50;44.40;;;;;;5047144;28;20481;-80
2023/03/01 06:42:50;;;;;;;11.80;8.20;;;13.50;44.40;;;;;;5047434;28;20460;-81
2023/03/01 06:45:19;;;;;;;12.83;8.17;;;13.60;44.50;;;;;;5043702;28;20478;-81
2023/03/01 06:47:47;;;;;;;11.80;8.30;;;13.50;44.30;;;;;;5042154;28;20442;-80
2023/03/01 06:50:16;;;;;;;12.43;8.53;;;13.50;44.20;;;;;;5044336;28;20462;-82
2023/03/01 06:52:44;;;;;;;10.87;7.47;;;13.50;44.20;;;;;;5045866;28;20442;-81
2023/03/01 06:55:12;;;;;;;12.33;8.83;;;13.50;44.10;;;;;;5042421;28;20471;-81
2023/03/01 06:57:40;;;;;;;10.17;7.63;;;13.50;44.20;;;;;;5044838;28;20570;-81
2023/03/01 07:00:09;;;;;;;11.47;7.83;;;13.60;44.40;;;;;;5046700;28;20448;-79
2023/03/01 07:02:38;;;;;;;12.00;8.00;;;13.50;44.30;;;;;;5043175;28;20444;-81
2023/03/01 07:05:07;;;;;;;13.77;7.90;;;13.50;44.40;;;;;;5045334;28;20475;-81
2023/03/01 07:07:35;;;;;;;12.27;8.27;;;13.50;44.30;;;;;;5040686;28;20459;-82
2023/03/01 07:10:03;;;;;;;10.87;8.40;;;13.50;44.40;;;;;;5046680;28;20452;-82
2023/03/01 07:12:31;;;;;;;9.80;7.70;;;13.60;44.50;;;;;;5046256;28;20463;-82
2023/03/01 07:15:01;;;;;;;13.47;7.80;;;13.60;44.50;;;;;;5042318;28;20479;-81
2023/03/01 07:17:29;;;;;;;11.70;8.40;;;13.60;44.40;;;;;;5039210;28;20487;-82
2023/03/01 07:19:58;;;;;;;10.80;7.83;;;13.60;44.50;;;;;;5044551;28;21230;-81
2023/03/01 07:22:25;;;;;;;11.30;8.07;;;13.60;44.40;;;;;;5048065;28;20459;-81
2023/03/01 07:24:53;;;;;;;9.00;7.23;;;13.70;44.60;;;;;;5044642;28;21010;-81
2023/03/01 07:27:21;;;;;;;10.50;7.93;;;13.70;44.60;;;;;;5042320;28;20493;-81
2023/03/01 07:29:49;;;;;;;11.90;7.73;;;13.70;44.60;;;;;;5050207;28;20443;-82
2023/03/01 07:32:17;;;;;;;11.67;8.27;;;13.70;44.60;;;;;;5046653;28;20443;-81
2023/03/01 07:34:45;;;;;;;11.07;8.00;;;13.70;44.50;;;;;;5045934;28;20474;-81
2023/03/01 07:37:14;;;;;;;10.90;7.63;;;13.80;44.60;;;;;;5048365;28;20455;-82
2023/03/01 07:39:42;;;;;;;10.97;8.00;;;13.80;44.60;;;;;;5044137;28;20465;-81
2023/03/01 07:42:10;;;;;;;10.20;7.70;;;13.80;44.70;;;;;;5050504;28;20473;-81
2023/03/01 07:44:38;;;;;;;11.83;8.37;;;13.80;44.80;;;;;;5042857;28;20475;-81
2023/03/01 07:47:06;;;;;;;12.93;8.23;;;13.90;44.70;;;;;;5047214;28;20450;-80
2023/03/01 07:49:34;;;;;;;10.93;8.20;;;13.90;44.80;;;;;;5045402;28;20462;-79
2023/03/01 07:52:02;;;;;;;9.93;7.80;;;13.90;44.70;;;;;;5043714;28;20443;-80
2023/03/01 07:54:32;;;;;;;10.50;7.77;;;14.00;44.80;;;;;;5043349;28;20472;-80
2023/03/01 07:56:59;;;;;;;11.63;7.80;;;14.00;44.80;;;;;;5044932;28;20473;-80
2023/03/01 07:59:28;;;;;;;12.57;8.50;;;14.00;44.80;;;;;;5045759;28;20458;-80
2023/03/01 08:01:57;;;;;;;13.17;8.50;;;14.10;44.80;;;;;;5047923;28;20455;-80
2023/03/01 08:04:26;;;;;;;10.13;8.17;;;14.10;44.90;;;;;;5045048;28;20482;-80
2023/03/01 08:06:54;;;;;;;13.70;9.20;;;14.10;45.00;;;;;;5042631;28;20475;-80
2023/03/01 08:09:22;;;;;;;11.13;8.30;;;14.10;44.90;;;;;;5045706;28;20457;-80
2023/03/01 08:11:52;;;;;;;10.47;8.20;;;14.20;45.00;;;;;;5044588;28;20478;-80
2023/03/01 08:14:20;;;;;;;12.27;8.70;;;14.20;44.80;;;;;;5042293;28;20470;-80
2023/03/01 08:16:50;;;;;;;10.90;8.60;;;14.30;45.10;;;;;;5039728;28;20456;-80
2023/03/01 08:19:18;;;;;;;10.73;8.13;;;14.40;45.10;;;;;;5041519;28;20466;-80
2023/03/01 08:21:46;;;;;;;11.67;8.27;;;14.40;45.10;;;;;;5040488;28;20462;-80
2023/03/01 08:24:14;;;;;;;12.47;9.00;;;14.40;45.00;;;;;;5041443;28;20483;-81
2023/03/01 08:26:43;;;;;;;10.50;7.57;;;14.50;45.00;;;;;;5046635;28;20474;-80
2023/03/01 08:29:12;;;;;;;11.53;8.20;;;14.60;45.20;;;;;;5042440;28;20455;-79
2023/03/01 08:31:41;;;;;;;10.80;8.43;;;14.70;45.30;;;;;;5040746;28;20443;-80
2023/03/01 08:34:10;;;;;;;10.73;8.20;;;14.80;45.40;;;;;;5045447;28;20470;-81
2023/03/01 08:36:39;;;;;;;11.03;7.70;;;14.90;45.50;;;;;;5042644;28;20443;-80
2023/03/01 08:39:08;;;;;;;9.23;8.03;;;15.00;45.30;;;;;;5053743;28;20446;-80
2023/03/01 08:41:36;;;;;;;10.40;8.03;;;15.10;45.50;;;;;;5048254;28;20462;-79
2023/03/01 08:44:04;;;;;;;10.03;7.60;;;15.20;45.80;;;;;;5052167;28;20474;-79
2023/03/01 08:46:35;;;;;;;11.73;8.87;;;15.30;45.70;;;;;;5048116;28;20463;-80
2023/03/01 08:49:04;;;;;;;12.73;8.07;;;15.40;45.90;;;;;;5045769;28;20455;-81
2023/03/01 08:51:36;;;;;;;11.13;7.50;;;15.60;46.20;;;;;;5048001;28;20455;-80
2023/03/01 08:54:04;;;;;;;9.30;7.43;;;15.70;46.20;;;;;;5046187;28;20481;-81
2023/03/01 08:56:32;;;;;;;13.03;7.90;;;15.90;46.90;;;;;;5049770;28;20523;-81
2023/03/01 08:59:00;;;;;;;14.23;8.03;;;16.20;46.50;;;;;;5053381;28;20438;-81
2023/03/01 09:01:28;;;;;;;8.70;7.10;;;16.30;46.60;;;;;;5053728;28;20454;-81
2023/03/01 09:03:57;;;;;;;13.40;7.33;;;16.50;46.60;;;;;;5054703;28;20473;-81
2023/03/01 09:06:25;;;;;;;10.90;7.00;;;16.80;46.60;;;;;;5055812;28;20477;-77
2023/03/01 09:08:55;;;;;;;10.53;7.40;;;16.90;46.60;;;;;;5055618;28;20450;-81
2023/03/01 09:11:23;;;;;;;9.20;7.20;;;17.20;46.60;;;;;;5049060;28;20467;-81
2023/03/01 09:13:51;;;;;;;8.77;7.20;;;17.30;46.40;;;;;;5053825;28;20530;-78
2023/03/01 09:16:20;;;;;;;11.07;7.00;;;17.50;46.50;;;;;;5057421;28;20486;-81
2023/03/01 09:18:50;;;;;;;8.53;6.70;;;17.80;46.60;;;;;;5050677;28;20446;-81
2023/03/01 09:21:20;;;;;;;7.70;6.80;;;18.00;46.40;;;;;;5051215;28;20442;-81
2023/03/01 09:24:06;;;;;;;9.30;7.27;;;18.10;46.10;;;;;;5051728;28;20462;-81
2023/03/01 09:26:34;;;;;;;8.90;6.50;;;18.30;46.20;;;;;;5057687;28;20486;-81
2023/03/01 09:29:03;;;;;;;8.63;6.30;;;18.50;46.10;;;;;;5053999;28;20452;-81
2023/03/01 09:31:31;;;;;;;14.53;6.83;;;18.70;46.10;;;;;;5056031;28;20446;-82
2023/03/01 09:33:59;;;;;;;8.83;6.87;;;19.00;46.00;;;;;;5057035;28;20493;-80
2023/03/01 09:36:29;;;;;;;8.23;6.30;;;19.20;45.80;;;;;;5057111;28;20439;-79
2023/03/01 09:38:59;;;;;;;8.03;5.80;;;19.50;45.60;;;;;;5049656;28;20446;-78
2023/03/01 09:41:47;;;;;;;8.00;6.47;;;19.70;45.60;;;;;;5046002;28;20464;-81
2023/03/01 09:44:32;;;;;;;8.67;5.70;;;20.00;45.30;;;;;;5056439;28;20500;-80
2023/03/01 09:47:00;;;;;;;10.03;6.00;;;20.20;45.00;;;;;;5049204;28;20471;-80
2023/03/01 09:49:30;;;;;;;7.73;6.17;;;20.50;45.10;;;;;;5049612;28;20443;-80
2023/03/01 09:52:04;;;;;;;6.90;5.80;;;20.70;44.90;;;;;;5059451;28;20457;-80
2023/03/01 09:54:32;;;;;;;12.00;6.30;;;21.00;44.80;;;;;;5058828;28;20466;-80
2023/03/01 09:57:14;;;;;;;6.77;5.63;;;21.20;44.50;;;;;;5060973;28;20466;-80
2023/03/01 09:59:49;;;;;;;6.93;6.00;;;21.50;44.40;;;;;;5047834;28;20443;-80
2023/03/01 10:02:24;;;;;;;8.77;6.17;;;21.70;44.10;;;;;;5046165;28;20472;-78
2023/03/01 10:04:54;;;;;;;10.77;6.33;;;22.00;44.00;;;;;;5059097;28;20465;-80
2023/03/01 10:07:28;;;;;;;9.27;5.90;;;22.20;43.90;;;;;;5060760;28;20466;-81
2023/03/01 10:09:57;;;;;;;6.90;5.67;;;22.40;43.60;;;;;;5047399;28;20446;-80
2023/03/01 10:12:26;;;;;;;7.43;4.97;;;22.70;43.60;;;;;;5056606;28;20466;-80
2023/03/01 10:14:57;;;;;;;12.30;5.60;;;22.90;43.30;;;;;;5060072;28;20463;-78
2023/03/01 10:17:27;;;;;;;8.17;5.73;;;23.10;43.20;;;;;;5052043;28;20455;-80
2023/03/01 10:19:55;;;;;;;6.90;5.47;;;23.40;43.00;;;;;;5054354;28;20442;-80
2023/03/01 10:22:27;;;;;;;8.40;5.43;;;23.60;42.70;;;;;;5061348;28;20446;-81
2023/03/01 10:24:57;;;;;;;6.23;5.70;;;23.90;42.50;;;;;;5056236;28;20449;-81
2023/03/01 10:27:26;;;;;;;6.27;5.23;;;24.10;42.40;;;;;;5059838;28;20451;-81
2023/03/01 10:29:57;;;;;;;7.90;5.60;;;24.40;42.20;;;;;;5048787;28;20916;-80
2023/03/01 10:32:25;;;;;;;6.33;5.27;;;24.60;41.90;;;;;;5056286;28;20445;-81
2023/03/01 10:34:54;;;;;;;10.00;5.40;;;24.80;41.70;;;;;;5049517;28;20474;-81
2023/03/01 10:37:24;;;;;;;6.03;5.10;;;25.10;41.50;;;;;;5054602;28;20439;-79
2023/03/01 10:40:05;;;;;;;5.47;4.97;;;25.30;41.20;;;;;;5064301;28;20425;-81
2023/03/01 10:42:34;;;;;;;5.97;5.37;;;25.50;41.00;;;;;;5057956;28;20531;-81
2023/03/01 10:45:16;;;;;;;5.53;4.47;;;25.80;40.70;;;;;;5049438;28;21029;-82
2023/03/01 10:47:44;;;;;;;5.23;4.73;;;26.10;40.50;;;;;;5049945;28;20472;-81
2023/03/01 10:50:20;;;;;;;5.73;5.20;;;26.30;40.20;;;;;;5052259;28;20421;-81
2023/03/01 10:52:57;;;;;;;5.13;4.63;;;26.60;39.90;;;;;;5053281;28;20441;-80
2023/03/01 10:55:29;;;;;;;5.20;4.80;;;26.80;39.60;;;;;;5048276;28;20443;-80
2023/03/01 10:58:17;;;;;;;5.10;4.70;;;27.00;39.40;;;;;;5051333;28;20424;-81
2023/03/01 11:00:47;;;;;;;5.40;4.90;;;27.20;39.10;;;;;;5056942;28;20420;-80
2023/03/01 11:03:19;;;;;;;6.13;4.40;;;27.50;38.70;;;;;;5059908;28;20425;-78
2023/03/01 11:05:54;;;;;;;5.20;4.70;;;27.70;38.50;;;;;;5052344;28;20446;-80
2023/03/01 11:08:37;;;;;;;4.60;4.30;;;27.90;38.10;;;;;;5053709;28;20430;-79
2023/03/01 11:11:15;;;;;;;4.77;4.37;;;28.20;37.80;;;;;;5050114;28;20443;-80
2023/03/01 11:13:53;;;;;;;4.33;4.03;;;28.30;37.40;;;;;;5054266;28;20440;-79
2023/03/01 11:16:26;;;;;;;5.63;4.53;;;28.60;37.30;;;;;;5060193;28;20440;-80
2023/03/01 11:18:58;;;;;;;6.03;4.33;;;28.70;37.00;;;;;;5058357;28;20437;-80
2023/03/01 11:21:26;;;;;;;5.03;4.07;;;29.00;36.80;;;;;;5050570;28;20436;-80
2023/03/01 11:23:54;;;;;;;4.57;4.27;;;29.20;36.50;;;;;;5052726;28;20427;-79
2023/03/01 11:26:23;;;;;;;4.33;4.03;;;29.90;36.10;;;;;;5054465;28;20474;-77
2023/03/01 11:28:53;;;;;;;4.43;4.13;;;30.80;35.10;;;;;;5057367;28;20802;-79
2023/03/01 11:31:21;;;;;;;4.50;4.20;;;31.60;34.20;;;;;;5050546;28;20421;-81
2023/03/01 11:33:52;;;;;;;4.47;4.17;;;32.50;33.00;;;;;;5058487;28;20458;-81
2023/03/01 11:36:25;;;;;;;3.80;3.60;;;33.50;31.90;;;;;;5061057;28;20455;-81
2023/03/01 11:38:53;;;;;;;3.67;3.47;;;34.50;30.70;;;;;;5060342;28;20949;-81
2023/03/01 11:41:24;;;;;;;3.17;3.00;;;35.30;29.70;;;;;;5047917;28;20501;-81
2023/03/01 11:43:54;;;;;;;3.30;3.20;;;36.10;28.90;;;;;;5057485;28;20455;-79
2023/03/01 11:46:52;;;;;;;3.23;3.03;;;36.80;28.20;;;;;;5055101;28;20437;-81
2023/03/01 11:49:40;;;;;;;3.23;3.13;;;37.50;27.40;;;;;;5042206;28;20451;-81
2023/03/01 11:52:12;;;;;;;2.57;2.57;;;38.10;26.90;;;;;;5049524;28;20468;-78
2023/03/01 11:54:47;;;;;;;3.03;2.93;;;38.70;26.50;;;;;;5058025;28;20476;-80
2023/03/01 11:57:21;;;;;;;2.83;2.73;;;39.20;25.90;;;;;;5060268;28;20478;-80
2023/03/01 12:00:03;;;;;;;2.90;2.80;;;39.70;25.30;;;;;;5059709;28;20449;-79
2023/03/01 12:02:56;;;;;;;2.87;2.77;;;40.20;25.00;;;;;;5056133;28;20446;-77
2023/03/01 12:05:51;;;;;;;2.90;2.70;;;40.70;24.50;;;;;;5052715;28;20466;-81
2023/03/01 12:08:21;;;;;;;2.90;2.80;;;41.10;24.10;;;;;;5055099;28;20461;-82
2023/03/01 12:10:55;;;;;;;2.70;2.60;;;41.50;23.90;;;;;;5056423;28;20963;-81
2023/03/01 12:13:39;;;;;;;3.50;3.30;;;41.90;23.50;;;;;;5053002;28;20435;-81
2023/03/01 12:16:13;;;;;;;2.57;2.47;;;42.10;23.30;;;;;;5047754;28;20527;-81
2023/03/01 12:18:58;;;;;;;2.40;2.30;;;42.50;22.90;;;;;;5054730;28;20456;-80
2023/03/01 12:21:31;;;;;;;2.20;2.20;;;42.80;22.80;;;;;;5057946;28;20434;-78
2023/03/01 12:24:16;;;;;;;2.10;2.10;;;43.10;22.50;;;;;;5058519;28;20470;-80
2023/03/01 12:26:48;;;;;;;2.30;2.20;;;43.50;22.10;;;;;;5059677;28;20458;-82
2023/03/01 12:29:25;;;;;;;1.87;1.87;;;43.70;22.00;;;;;;5052017;28;20477;-80
2023/03/01 12:32:12;;;;;;;2.20;2.20;;;43.90;21.70;;;;;;5052325;28;20516;-81
2023/03/01 12:35:07;;;;;;;2.07;2.07;;;44.10;21.70;;;;;;5044420;28;20576;-81
2023/03/01 12:37:40;;;;;;;1.90;1.90;;;44.30;21.40;;;;;;5048393;28;20505;-82
2023/03/01 12:40:27;;;;;;;2.00;1.90;;;44.50;21.20;;;;;;5048836;28;20496;-82
2023/03/01 12:42:59;;;;;;;1.80;1.80;;;44.70;21.10;;;;;;5047471;28;20447;-78
2023/03/01 12:45:35;;;;;;;2.10;2.10;;;44.70;21.10;;;;;;5045192;28;20450;-81
2023/03/01 12:48:11;;;;;;;1.80;1.80;;;44.90;20.90;;;;;;5051869;28;20440;-81
2023/03/01 12:50:41;;;;;;;1.77;1.77;;;45.00;20.80;;;;;;5055615;28;20442;-81
2023/03/01 12:53:16;;;;;;;1.70;1.70;;;45.10;20.70;;;;;;5057529;28;20453;-81